createdAt,value
2022-08-14T00:02:27.245Z,59.24
2022-08-14T00:04:56.189Z,58.10
2022-08-14T00:07:25.937Z,58.47
2022-08-14T00:10:01.429Z,58.55
2022-08-14T00:12:48.294Z,59.25
2022-08-14T00:15:30.003Z,57.79
2022-08-14T00:18:07.006Z,57.98
2022-08-14T00:20:43.160Z,58.14
2022-08-14T00:23:16.361Z,58.86
2022-08-14T00:25:58.756Z,59.44
2022-08-14T00:28:36.703Z,59.58
2022-08-14T00:31:08.096Z,59.34
2022-08-14T00:33:50.776Z,58.94
2022-08-14T00:36:35.277Z,59.47
2022-08-14T00:39:14.238Z,58.70
2022-08-14T00:41:42.591Z,60.58
2022-08-14T00:44:11.432Z,60.01
2022-08-14T00:46:40.996Z,59.24
2022-08-14T00:49:11.610Z,59.11
2022-08-14T00:51:44.596Z,58.92
2022-08-14T00:54:21.840Z,60.49
2022-08-14T00:56:54.843Z,61.14
2022-08-14T00:59:25.364Z,59.70
2022-08-14T01:01:57.109Z,58.94
2022-08-14T01:04:38.337Z,60.27
2022-08-14T01:07:21.153Z,59.45
2022-08-14T01:09:52.676Z,60.91
2022-08-14T01:12:26.502Z,60.29
2022-08-14T01:14:58.315Z,60.27
2022-08-14T01:17:49.582Z,59.89
2022-08-14T01:20:39.625Z,61.76
2022-08-14T01:23:16.758Z,60.96
2022-08-14T01:25:49.055Z,61.39
2022-08-14T01:28:34.167Z,61.99
2022-08-14T01:31:09.625Z,61.93
2022-08-14T01:33:59.206Z,61.51
2022-08-14T01:36:29.830Z,62.18
2022-08-14T01:39:09.728Z,61.90
2022-08-14T01:41:41.934Z,61.18
2022-08-14T01:44:33.290Z,61.18
2022-08-14T01:47:05.854Z,60.74
2022-08-14T01:49:35.488Z,61.20
2022-08-14T01:52:13.429Z,60.61
2022-08-14T01:54:58.652Z,60.25
2022-08-14T01:57:49.599Z,61.13
2022-08-14T02:00:19.168Z,61.38
2022-08-14T02:02:47.408Z,61.00
2022-08-14T02:05:21.454Z,61.57
2022-08-14T02:07:55.581Z,61.05
2022-08-14T02:10:28.996Z,60.54
2022-08-14T02:12:59.406Z,60.43
2022-08-14T02:15:27.734Z,60.20
2022-08-14T02:17:55.705Z,60.63
2022-08-14T02:20:24.376Z,60.25
2022-08-14T02:22:54.793Z,60.70
2022-08-14T02:25:23.438Z,62.10
2022-08-14T02:28:23.733Z,60.70
2022-08-14T02:30:44.674Z,60.40
2022-08-14T02:33:14.149Z,60.56
2022-08-14T02:35:43.519Z,60.79
2022-08-14T02:38:30.232Z,60.13
2022-08-14T02:41:00.485Z,59.74
2022-08-14T02:43:36.741Z,60.54
2022-08-14T02:46:05.685Z,60.97
2022-08-14T02:49:01.406Z,60.96
2022-08-14T02:51:26.511Z,60.64
2022-08-14T02:53:59.049Z,61.27
2022-08-14T02:56:30.548Z,62.24
2022-08-14T02:59:18.563Z,62.42
2022-08-14T03:01:50.911Z,62.59
2022-08-14T03:04:23.001Z,62.58
2022-08-14T03:06:57.877Z,61.92
2022-08-14T03:10:24.770Z,61.99
2022-08-14T03:12:31.720Z,62.31
2022-08-14T03:15:16.563Z,61.42
2022-08-14T03:17:57.727Z,61.79
2022-08-14T03:20:28.327Z,61.87
2022-08-14T03:22:59.523Z,61.54
2022-08-14T03:25:34.042Z,60.92
2022-08-14T03:28:07.157Z,60.79
2022-08-14T03:30:39.835Z,61.08
2022-08-14T03:33:11.062Z,60.90
2022-08-14T03:35:59.759Z,60.65
2022-08-14T03:39:11.592Z,61.02
2022-08-14T03:41:22.975Z,62.20
2022-08-14T03:43:57.125Z,61.47
2022-08-14T03:46:51.975Z,62.38
2022-08-14T03:49:24.400Z,61.65
2022-08-14T03:51:57.700Z,62.50
2022-08-14T03:54:26.456Z,61.94
2022-08-14T03:56:54.981Z,62.60
2022-08-14T03:59:23.396Z,63.12
2022-08-14T04:01:57.859Z,62.32
2022-08-14T04:04:29.616Z,63.01
2022-08-14T04:07:00.184Z,63.39
2022-08-14T04:09:29.339Z,62.98
2022-08-14T04:11:58.297Z,62.46
2022-08-14T04:14:29.005Z,63.65
2022-08-14T04:16:58.813Z,62.34
2022-08-14T04:19:28.091Z,62.09
2022-08-14T04:22:03.740Z,63.50
2022-08-14T04:24:38.302Z,63.86
2022-08-14T04:27:09.634Z,63.58
2022-08-14T04:29:39.345Z,64.12
2022-08-14T04:33:00.365Z,64.08
2022-08-14T04:34:58.470Z,66.08
2022-08-14T04:37:45.190Z,64.92
2022-08-14T04:40:40.817Z,64.13
2022-08-14T04:43:38.427Z,63.62
2022-08-14T04:46:08.672Z,64.39
2022-08-14T04:48:43.254Z,63.88
2022-08-14T04:51:15.474Z,63.95
2022-08-14T04:53:46.080Z,65.19
2022-08-14T04:56:31.626Z,63.80
2022-08-14T04:59:10.208Z,64.96
2022-08-14T05:01:45.175Z,64.05
2022-08-14T05:04:19.984Z,64.38
2022-08-14T05:06:49.812Z,63.86
2022-08-14T05:09:21.674Z,63.10
2022-08-14T05:11:49.867Z,62.79
2022-08-14T05:14:45.610Z,62.97
2022-08-14T05:17:10.800Z,62.52
2022-08-14T05:19:44.555Z,63.60
2022-08-14T05:22:29.159Z,63.83
2022-08-14T05:24:57.171Z,62.50
2022-08-14T05:27:26.143Z,62.55
2022-08-14T05:29:59.749Z,61.21
2022-08-14T05:32:28.449Z,61.29
2022-08-14T05:34:59.984Z,61.00
2022-08-14T05:37:30.775Z,61.54
2022-08-14T05:40:01.105Z,60.76
2022-08-14T05:42:34.049Z,61.94
2022-08-14T05:45:02.444Z,59.42
2022-08-14T05:47:39.042Z,60.04
2022-08-14T05:50:17.588Z,60.70
2022-08-14T05:52:49.282Z,60.90
2022-08-14T05:55:21.979Z,60.76
2022-08-14T05:57:54.114Z,61.34
2022-08-14T06:00:28.519Z,58.01
2022-08-14T06:02:58.481Z,59.75
2022-08-14T06:05:30.013Z,56.06
2022-08-14T06:07:59.061Z,56.37
2022-08-14T06:10:28.059Z,55.80
2022-08-14T06:12:57.975Z,55.28
2022-08-14T06:15:30.410Z,56.11
2022-08-14T06:18:00.207Z,54.17
2022-08-14T06:20:31.520Z,54.32
2022-08-14T06:23:02.748Z,54.70
2022-08-14T06:25:31.605Z,56.04
2022-08-14T06:28:00.820Z,54.76
2022-08-14T06:30:45.727Z,55.44
2022-08-14T06:33:16.281Z,54.30
2022-08-14T06:35:49.830Z,54.21
2022-08-14T06:38:20.494Z,54.51
2022-08-14T06:40:52.068Z,54.03
2022-08-14T06:43:27.079Z,54.46
2022-08-14T06:45:58.026Z,54.30
2022-08-14T06:48:29.015Z,54.58
2022-08-14T06:51:02.467Z,54.69
2022-08-14T06:53:31.455Z,55.65
2022-08-14T06:56:02.295Z,54.45
2022-08-14T06:58:32.131Z,54.20
2022-08-14T07:01:26.922Z,54.18
2022-08-14T07:04:24.067Z,54.32
2022-08-14T07:06:59.176Z,54.53
2022-08-14T07:09:44.349Z,54.25
2022-08-14T07:12:52.021Z,54.68
2022-08-14T07:15:05.399Z,54.64
2022-08-14T07:17:34.288Z,53.48
2022-08-14T07:20:02.558Z,52.97
2022-08-14T07:22:32.770Z,52.95
2022-08-14T07:25:08.989Z,52.03
2022-08-14T07:27:37.345Z,51.96
2022-08-14T07:30:33.716Z,51.85
2022-08-14T07:32:58.593Z,55.65
2022-08-14T07:35:30.320Z,51.99
2022-08-14T07:38:07.469Z,52.25
2022-08-14T07:40:36.765Z,51.78
2022-08-14T07:43:14.301Z,51.68
2022-08-14T07:45:43.273Z,51.38
2022-08-14T07:48:11.821Z,50.82
2022-08-14T07:50:45.500Z,53.26
2022-08-14T07:53:15.642Z,51.16
2022-08-14T07:55:45.308Z,52.42
2022-08-14T07:58:34.163Z,52.09
2022-08-14T08:01:02.578Z,50.37
2022-08-14T08:03:35.448Z,49.94
2022-08-14T08:06:04.109Z,49.13
2022-08-14T08:08:40.862Z,49.81
2022-08-14T08:11:14.837Z,49.39
2022-08-14T08:13:49.147Z,48.33
2022-08-14T08:16:24.458Z,47.94
2022-08-14T08:18:57.697Z,47.60
2022-08-14T08:21:33.343Z,47.06
2022-08-14T08:24:06.362Z,46.37
2022-08-14T08:26:34.894Z,47.74
2022-08-14T08:29:07.292Z,46.69
2022-08-14T08:31:36.505Z,46.16
2022-08-14T08:34:07.265Z,46.33
2022-08-14T08:36:43.102Z,45.42
2022-08-14T08:39:22.882Z,44.86
2022-08-14T08:41:54.118Z,45.38
2022-08-14T08:44:32.084Z,44.47
2022-08-14T08:47:05.669Z,45.49
2022-08-14T08:49:53.384Z,44.88
2022-08-14T08:52:31.209Z,44.63
2022-08-14T08:55:04.926Z,44.79
2022-08-14T08:57:37.601Z,44.77
2022-08-14T09:00:24.576Z,45.01
2022-08-14T09:02:57.751Z,44.94
2022-08-14T09:05:26.648Z,44.12
2022-08-14T09:07:56.722Z,44.97
2022-08-14T09:10:27.232Z,44.35
2022-08-14T09:12:58.681Z,43.43
2022-08-14T09:15:36.690Z,43.70
2022-08-14T09:18:11.649Z,42.42
2022-08-14T09:20:41.231Z,42.19
2022-08-14T09:23:11.318Z,42.58
2022-08-14T09:25:59.625Z,41.42
2022-08-14T09:28:29.818Z,39.29
2022-08-14T09:31:01.513Z,39.34
2022-08-14T09:33:57.521Z,39.55
2022-08-14T09:36:35.406Z,38.03
2022-08-14T09:39:22.960Z,37.71
2022-08-14T09:42:21.853Z,36.85
2022-08-14T09:45:15.320Z,37.09
2022-08-14T09:47:47.196Z,36.76
2022-08-14T09:50:26.049Z,35.53
2022-08-14T09:52:59.618Z,35.87
2022-08-14T09:55:41.497Z,35.12
2022-08-14T09:58:19.879Z,35.54
2022-08-14T10:00:53.947Z,35.33
2022-08-14T10:03:33.829Z,33.65
2022-08-14T10:06:07.211Z,33.28
2022-08-14T10:08:50.707Z,32.98
2022-08-14T10:11:23.573Z,33.11
2022-08-14T10:13:56.823Z,36.13
2022-08-14T10:16:32.990Z,32.40
2022-08-14T10:19:07.182Z,32.53
2022-08-14T10:21:38.937Z,32.81
2022-08-14T10:24:31.023Z,31.89
2022-08-14T10:27:06.495Z,33.10
2022-08-14T10:29:40.796Z,35.65
2022-08-14T10:32:17.440Z,34.38
2022-08-14T10:34:52.820Z,33.21
2022-08-14T10:37:23.177Z,32.83
2022-08-14T10:40:05.408Z,32.67
2022-08-14T10:42:40.547Z,32.44
2022-08-14T10:45:21.231Z,31.27
2022-08-14T10:48:07.664Z,30.55
2022-08-14T10:50:45.753Z,30.46
2022-08-14T10:53:15.305Z,30.86
2022-08-14T10:55:45.388Z,32.34
2022-08-14T10:58:15.066Z,29.87
2022-08-14T11:00:58.891Z,29.05
2022-08-14T11:03:56.431Z,28.99
2022-08-14T11:06:25.557Z,29.18
2022-08-14T11:08:55.806Z,29.31
2022-08-14T11:11:28.578Z,30.84
2022-08-14T11:14:09.397Z,28.48
2022-08-14T11:16:41.708Z,30.57
2022-08-14T11:19:25.147Z,30.54
2022-08-14T11:21:56.022Z,29.87
2022-08-14T11:24:54.182Z,29.97
2022-08-14T11:27:20.582Z,31.27
2022-08-14T11:29:52.742Z,29.52
2022-08-14T11:32:31.119Z,29.17
2022-08-14T11:35:01.569Z,28.68
2022-08-14T11:37:40.541Z,29.55
2022-08-14T11:40:28.525Z,30.79
2022-08-14T11:42:59.430Z,29.85
2022-08-14T11:45:34.292Z,30.13
2022-08-14T11:49:02.432Z,29.24
2022-08-14T11:51:13.822Z,28.76
2022-08-14T11:53:43.870Z,29.58
2022-08-14T11:56:13.961Z,28.80
2022-08-14T11:58:42.370Z,30.56
2022-08-14T12:01:10.818Z,28.78
2022-08-14T12:03:51.678Z,28.32
2022-08-14T12:06:28.842Z,26.95
2022-08-14T12:09:08.703Z,26.53
2022-08-14T12:11:47.239Z,26.66
2022-08-14T12:14:29.810Z,27.45
2022-08-14T12:17:02.173Z,28.88
2022-08-14T12:19:33.793Z,29.52
2022-08-14T12:22:03.096Z,29.44
2022-08-14T12:24:36.562Z,29.11
2022-08-14T12:27:08.144Z,29.33
2022-08-14T12:29:37.528Z,28.56
2022-08-14T12:32:12.551Z,30.54
2022-08-14T12:34:45.067Z,28.94
2022-08-14T12:37:13.649Z,28.76
2022-08-14T12:39:41.854Z,29.71
2022-08-14T12:42:11.954Z,29.10
2022-08-14T12:44:59.880Z,29.61
2022-08-14T12:47:32.597Z,28.85
2022-08-14T12:50:02.444Z,28.33
2022-08-14T12:52:41.619Z,29.13
2022-08-14T12:55:22.455Z,29.30
2022-08-14T12:58:28.743Z,28.62
2022-08-14T13:01:14.254Z,29.58
2022-08-14T13:03:42.825Z,30.15
2022-08-14T13:06:15.660Z,29.42
2022-08-14T13:08:52.913Z,28.89
2022-08-14T13:11:25.720Z,29.28
2022-08-14T13:13:59.297Z,29.08
2022-08-14T13:16:38.581Z,29.04
2022-08-14T13:19:12.897Z,28.19
2022-08-14T13:22:04.846Z,28.76
2022-08-14T13:24:34.743Z,29.66
2022-08-14T13:27:05.200Z,29.79
2022-08-14T13:29:40.514Z,29.46
2022-08-14T13:32:10.441Z,29.97
2022-08-14T13:34:41.150Z,28.75
2022-08-14T13:37:11.688Z,28.61
2022-08-14T13:39:56.334Z,28.82
2022-08-14T13:42:30.501Z,29.34
2022-08-14T13:45:01.357Z,28.36
2022-08-14T13:47:33.166Z,28.43
2022-08-14T13:50:04.798Z,28.43
2022-08-14T13:52:51.339Z,28.55
2022-08-14T13:55:31.408Z,29.00
2022-08-14T13:58:04.863Z,29.26
2022-08-14T14:00:53.571Z,29.08
2022-08-14T14:03:25.385Z,28.50
2022-08-14T14:05:59.067Z,27.73
2022-08-14T14:08:43.239Z,28.06
2022-08-14T14:11:15.874Z,28.98
2022-08-14T14:13:45.268Z,28.16
2022-08-14T14:16:26.510Z,29.35
2022-08-14T14:19:09.679Z,27.98
2022-08-14T14:21:40.348Z,27.83
2022-08-14T14:24:11.793Z,27.22
2022-08-14T14:26:47.237Z,27.31
2022-08-14T14:29:16.881Z,27.95
2022-08-14T14:31:48.455Z,27.32
2022-08-14T14:34:29.144Z,26.84
2022-08-14T14:37:04.558Z,27.05
2022-08-14T14:39:38.013Z,28.31
2022-08-14T14:42:27.872Z,27.35
2022-08-14T14:45:05.867Z,26.70
2022-08-14T14:47:35.161Z,26.82
2022-08-14T14:50:05.041Z,26.72
2022-08-14T14:52:37.138Z,26.30
2022-08-14T14:55:12.450Z,26.05
2022-08-14T14:57:40.963Z,26.07
2022-08-14T15:00:19.590Z,25.52
2022-08-14T15:02:51.594Z,25.10
2022-08-14T15:05:20.725Z,24.73
2022-08-14T15:07:51.121Z,24.54
2022-08-14T15:10:27.928Z,25.15
2022-08-14T15:13:03.629Z,25.44
2022-08-14T15:15:32.646Z,25.21
2022-08-14T15:18:01.623Z,25.49
2022-08-14T15:20:31.197Z,25.03
2022-08-14T15:23:11.868Z,25.67
2022-08-14T15:25:42.179Z,25.61
2022-08-14T15:28:12.896Z,25.00
2022-08-14T15:30:42.069Z,25.44
2022-08-14T15:33:11.804Z,25.19
2022-08-14T15:35:44.849Z,27.07
2022-08-14T15:38:17.672Z,25.48
2022-08-14T15:40:56.199Z,25.85
2022-08-14T15:43:27.339Z,25.58
2022-08-14T15:45:59.271Z,25.67
2022-08-14T15:48:29.581Z,25.01
2022-08-14T15:50:58.492Z,25.22
2022-08-14T15:53:26.549Z,25.45
2022-08-14T15:56:01.226Z,25.55
2022-08-14T15:58:30.445Z,25.60
2022-08-14T16:01:31.190Z,25.56
2022-08-14T16:04:04.004Z,25.56
2022-08-14T16:06:35.699Z,26.18
2022-08-14T16:09:11.050Z,26.49
2022-08-14T16:11:47.549Z,26.14
2022-08-14T16:14:21.866Z,26.05
2022-08-14T16:16:59.810Z,27.22
2022-08-14T16:19:31.471Z,26.88
2022-08-14T16:22:57.215Z,26.28
2022-08-14T16:27:44.382Z,26.18
2022-08-14T16:30:20.741Z,26.54
2022-08-14T16:32:59.058Z,26.97
2022-08-14T16:35:42.489Z,26.76
2022-08-14T16:38:29.407Z,26.00
2022-08-14T16:40:24.277Z,25.71
2022-08-14T16:41:27.452Z,26.48
2022-08-14T16:44:02.453Z,25.63
2022-08-14T16:46:37.294Z,25.98
2022-08-14T16:49:08.093Z,26.60
2022-08-14T16:51:38.620Z,26.53
2022-08-14T16:54:33.833Z,27.21
2022-08-14T16:57:13.122Z,26.98
2022-08-14T16:59:52.581Z,26.68
2022-08-14T17:02:35.152Z,26.65
2022-08-14T17:05:21.002Z,26.87
2022-08-14T17:08:32.427Z,27.03
2022-08-14T17:11:11.159Z,27.39
2022-08-14T17:13:59.512Z,27.38
2022-08-14T17:16:35.501Z,27.80
2022-08-14T17:19:05.404Z,29.06
2022-08-14T17:21:37.353Z,28.89
2022-08-14T17:24:58.511Z,28.22
2022-08-14T17:26:57.384Z,28.33
2022-08-14T17:29:31.168Z,28.33
2022-08-14T17:32:03.374Z,30.09
2022-08-14T17:34:45.507Z,29.18
2022-08-14T17:37:25.793Z,29.88
2022-08-14T17:43:02.038Z,29.56
2022-08-14T17:45:51.375Z,30.14
2022-08-14T17:49:14.062Z,29.71
2022-08-14T17:51:23.688Z,30.44
2022-08-14T17:54:02.523Z,30.31
2022-08-14T17:56:32.980Z,30.41
2022-08-14T17:59:06.845Z,30.85
2022-08-14T18:01:45.865Z,30.95
2022-08-14T18:04:27.828Z,31.02
2022-08-14T18:07:16.572Z,34.09
2022-08-14T18:09:57.219Z,31.10
2022-08-14T18:12:36.634Z,31.95
2022-08-14T18:15:14.698Z,31.63
2022-08-14T18:17:52.809Z,31.71
2022-08-14T18:21:40.730Z,31.48
2022-08-14T18:23:14.204Z,33.35
2022-08-14T18:25:48.205Z,31.89
2022-08-14T18:28:18.255Z,32.96
2022-08-14T18:31:43.892Z,32.07
2022-08-14T18:34:32.130Z,32.72
2022-08-14T18:37:16.960Z,33.37
2022-08-14T18:40:02.996Z,34.25
2022-08-14T18:42:45.417Z,34.91
2022-08-14T18:45:18.950Z,35.25
2022-08-14T18:48:16.007Z,34.78
2022-08-14T18:50:52.390Z,35.96
2022-08-14T18:53:24.847Z,35.70
2022-08-14T18:56:01.961Z,35.60
2022-08-14T18:58:57.119Z,36.22
2022-08-14T19:01:29.774Z,37.05
2022-08-14T19:03:58.787Z,36.67
2022-08-14T19:06:56.685Z,36.70
2022-08-14T19:09:56.217Z,36.44
2022-08-14T19:12:56.772Z,36.66
2022-08-14T19:15:27.282Z,37.07
2022-08-14T19:18:14.652Z,37.57
2022-08-14T19:20:52.544Z,38.02
2022-08-14T19:23:42.380Z,38.77
2022-08-14T19:26:35.462Z,37.79
2022-08-14T19:29:37.920Z,38.60
2022-08-14T19:32:39.149Z,39.28
2022-08-14T19:35:55.521Z,41.18
2022-08-14T19:38:57.645Z,44.51
2022-08-14T19:41:33.898Z,41.98
2022-08-14T19:44:15.777Z,40.92
2022-08-14T19:47:00.053Z,40.60
2022-08-14T19:50:08.022Z,40.79
2022-08-14T19:52:26.460Z,40.62
2022-08-14T19:55:00.100Z,41.95
2022-08-14T19:57:30.792Z,41.29
2022-08-14T20:00:28.741Z,40.86
2022-08-14T20:03:09.900Z,41.37
2022-08-14T20:05:45.420Z,41.20
2022-08-14T20:10:59.769Z,41.26
2022-08-14T20:11:16.013Z,41.98
2022-08-14T20:14:01.949Z,41.79
2022-08-14T20:16:40.506Z,42.18
2022-08-14T20:19:28.794Z,42.85
2022-08-14T20:22:35.289Z,42.80
2022-08-14T20:24:47.530Z,42.54
2022-08-14T20:27:24.838Z,43.03
2022-08-14T20:33:01.374Z,43.51
2022-08-14T20:35:35.785Z,43.64
2022-08-14T20:38:31.160Z,43.13
2022-08-14T20:40:55.944Z,43.78
2022-08-14T20:43:44.579Z,43.72
2022-08-14T20:46:16.277Z,43.56
2022-08-14T20:48:58.239Z,43.63
2022-08-14T20:51:37.039Z,43.73
2022-08-14T20:54:07.415Z,44.73
2022-08-14T20:56:38.051Z,43.86
2022-08-14T20:59:18.993Z,44.48
2022-08-14T21:01:55.224Z,44.72
2022-08-14T21:04:28.158Z,44.16
2022-08-14T21:07:25.361Z,44.86
2022-08-14T21:10:05.458Z,44.27
2022-08-14T21:12:55.527Z,43.79
2022-08-14T21:15:32.310Z,44.47
2022-08-14T21:18:01.800Z,44.04
2022-08-14T21:20:29.780Z,44.55
2022-08-14T21:23:01.776Z,44.52
2022-08-14T21:25:31.567Z,44.60
2022-08-14T21:28:03.270Z,44.67
2022-08-14T21:30:46.875Z,44.33
2022-08-14T21:33:23.521Z,44.78
2022-08-14T21:35:54.953Z,45.54
2022-08-14T21:38:33.536Z,45.52
2022-08-14T21:41:41.762Z,45.66
2022-08-14T21:44:17.468Z,45.21
2022-08-14T21:46:49.742Z,45.23
2022-08-14T21:49:22.813Z,45.67
2022-08-14T21:52:00.987Z,45.95
2022-08-14T21:54:50.025Z,46.56
2022-08-14T21:58:44.501Z,46.48
2022-08-14T22:00:35.772Z,46.14
2022-08-14T22:03:04.429Z,46.59
2022-08-14T22:05:33.944Z,46.99
2022-08-14T22:08:07.363Z,47.22
2022-08-14T22:10:37.056Z,47.84
2022-08-14T22:13:05.383Z,47.89
2022-08-14T22:15:33.604Z,48.35
2022-08-14T22:18:04.201Z,48.19
2022-08-14T22:20:36.324Z,47.62
2022-08-14T22:23:08.553Z,47.71
2022-08-14T22:25:40.985Z,47.96
2022-08-14T22:28:12.993Z,48.95
2022-08-14T22:30:41.607Z,48.06
2022-08-14T22:33:13.286Z,48.90
2022-08-14T22:35:43.789Z,48.70
2022-08-14T22:38:35.665Z,48.90
2022-08-14T22:41:26.712Z,48.71
2022-08-14T22:43:50.061Z,49.48
2022-08-14T22:46:20.620Z,49.97
2022-08-14T22:48:50.946Z,49.72
2022-08-14T22:51:22.725Z,50.01
2022-08-14T22:53:53.104Z,50.58
2022-08-14T22:56:29.416Z,50.75
2022-08-14T22:59:00.130Z,50.39
2022-08-14T23:01:55.029Z,51.07
2022-08-14T23:04:34.795Z,52.09
2022-08-14T23:07:21.998Z,51.75
2022-08-14T23:09:56.498Z,52.03
2022-08-14T23:12:29.259Z,52.01
2022-08-14T23:14:59.925Z,52.89
2022-08-14T23:17:38.823Z,53.10
2022-08-14T23:20:19.014Z,53.05
2022-08-14T23:22:52.850Z,53.57
2022-08-14T23:25:56.666Z,53.33
2022-08-14T23:28:34.417Z,53.50
2022-08-14T23:30:58.340Z,54.73
2022-08-14T23:33:28.759Z,55.18
2022-08-14T23:35:58.724Z,54.17
2022-08-14T23:38:30.353Z,54.13
2022-08-14T23:41:00.794Z,54.31
2022-08-14T23:43:31.161Z,54.29
2022-08-14T23:46:00.405Z,54.93
2022-08-14T23:48:29.373Z,54.96
2022-08-14T23:50:59.058Z,54.36
2022-08-14T23:53:48.070Z,55.05
2022-08-14T23:56:20.365Z,54.83
2022-08-14T23:59:00.996Z,55.38
